Time;durP1;ratioP1;P1;durP2;ratioP2;P2;SDS_P1;SDS_P2;PMS_P1;PMS_P2;Temp;Humidity;BMP_temperature;BMP_pressure;BME280_temperature;BME280_humidity;BME280_pressure;Samples;Min_cycle;Max_cycle;Signal;HPM_P1;HPM_P2
2022/05/07 04:01:59;;;;;;;4.20;3.73;;;5.40;96.30;;;;;;5243622;23;20966;-76
2022/05/07 04:04:25;;;;;;;5.03;3.73;;;6.00;96.30;;;;;;4955931;28;20516;-76
2022/05/07 04:06:50;;;;;;;4.10;3.20;;;6.60;96.30;;;;;;4973079;28;20170;-76
2022/05/07 04:09:16;;;;;;;4.37;2.73;;;7.30;96.30;;;;;;4972531;28;20213;-75
2022/05/07 04:11:41;;;;;;;6.93;3.10;;;7.90;96.30;;;;;;4972818;28;20562;-76
2022/05/07 04:14:06;;;;;;;4.13;2.67;;;8.20;96.30;;;;;;4973696;28;20182;-76
2022/05/07 04:16:32;;;;;;;3.17;2.83;;;8.50;96.30;;;;;;4975993;28;20207;-76
2022/05/07 04:18:57;;;;;;;9.70;2.30;;;8.90;96.30;;;;;;4972470;28;20550;-76
2022/05/07 04:23:58;;;;;;;5.53;2.73;;;9.70;96.30;;;;;;5266686;23;20229;-76
2022/05/07 04:26:24;;;;;;;4.00;2.77;;;10.20;96.30;;;;;;4972680;28;20425;-77
2022/05/07 04:28:49;;;;;;;4.47;3.80;;;10.80;96.30;;;;;;4971879;28;20210;-77
2022/05/07 04:31:17;;;;;;;3.70;3.03;;;11.40;96.30;;;;;;4972759;28;20597;-77
2022/05/07 04:33:42;;;;;;;2.90;2.60;;;12.00;96.30;;;;;;4972518;28;20170;-77
2022/05/07 04:36:08;;;;;;;4.90;2.30;;;12.70;96.30;;;;;;4972744;28;20512;-76
2022/05/07 04:38:33;;;;;;;2.60;2.13;;;12.90;96.30;;;;;;4971736;28;20706;-77
2022/05/07 04:40:58;;;;;;;3.57;2.17;;;13.20;96.30;;;;;;4972678;28;20204;-77
2022/05/07 04:43:24;;;;;;;2.77;2.17;;;13.90;96.30;;;;;;4972399;28;20722;-78
2022/05/07 04:45:49;;;;;;;2.50;2.10;;;14.20;96.30;;;;;;4972698;28;20189;-77
2022/05/07 04:48:15;;;;;;;3.60;2.20;;;14.10;96.30;;;;;;4971968;28;20646;-78
2022/05/07 04:50:40;;;;;;;3.80;2.13;;;14.40;96.30;;;;;;4972648;28;20218;-77
2022/05/07 04:53:06;;;;;;;3.10;2.70;;;14.90;96.30;;;;;;4972276;28;20213;-77
2022/05/07 04:55:31;;;;;;;4.00;2.00;;;15.20;94.90;;;;;;4955183;28;20635;-78
2022/05/07 04:57:57;;;;;;;3.33;2.93;;;15.40;94.70;;;;;;4971975;28;20198;-77
2022/05/07 05:00:23;;;;;;;5.10;2.20;;;15.60;93.20;;;;;;4972219;28;20233;-77
2022/05/07 05:02:48;;;;;;;2.70;2.30;;;15.30;94.20;;;;;;4972459;28;20189;-76
2022/05/07 05:05:14;;;;;;;3.80;2.20;;;15.10;94.40;;;;;;4972480;28;20189;-77
2022/05/07 05:07:39;;;;;;;2.97;2.60;;;14.40;96.10;;;;;;4949186;29;20685;-77
2022/05/07 05:10:05;;;;;;;3.17;2.87;;;13.30;96.30;;;;;;4936017;29;20182;-76
2022/05/07 05:12:32;;;;;;;3.90;2.67;;;12.20;96.30;;;;;;4953085;29;20678;-77
2022/05/07 05:15:01;;;;;;;7.93;4.53;;;12.10;96.30;;;;;;4952951;29;20421;-77
2022/05/07 05:17:26;;;;;;;5.80;3.73;;;11.80;96.30;;;;;;4952673;29;20418;-76
2022/05/07 05:19:52;;;;;;;4.93;2.47;;;10.80;96.30;;;;;;4952797;29;20411;-77
2022/05/07 05:22:17;;;;;;;2.60;2.40;;;10.60;96.30;;;;;;4952843;29;20198;-77
2022/05/07 05:24:43;;;;;;;2.57;2.13;;;10.30;96.30;;;;;;4953093;29;20186;-77
2022/05/07 05:27:08;;;;;;;2.33;2.13;;;9.90;96.30;;;;;;4953055;29;20213;-77
2022/05/07 05:29:34;;;;;;;2.00;1.80;;;9.90;96.30;;;;;;4952637;28;20210;-77
2022/05/07 05:31:59;;;;;;;3.43;2.17;;;10.40;96.30;;;;;;4956110;29;20721;-77
2022/05/07 05:34:25;;;;;;;1.90;1.73;;;11.80;96.30;;;;;;4956299;29;20191;-77
2022/05/07 05:36:51;;;;;;;2.37;2.10;;;13.10;96.30;;;;;;4956127;29;20254;-77
2022/05/07 05:39:16;;;;;;;2.60;2.00;;;14.80;96.30;;;;;;4938581;29;20517;-78
2022/05/07 05:41:44;;;;;;;2.40;2.13;;;16.00;96.10;;;;;;4956565;29;20195;-77
2022/05/07 05:44:10;;;;;;;8.03;2.30;;;17.10;91.80;;;;;;4956200;29;20175;-78
2022/05/07 05:46:35;;;;;;;4.10;1.90;;;17.50;90.40;;;;;;4956744;29;20442;-78
2022/05/07 05:49:01;;;;;;;2.20;2.00;;;17.20;90.30;;;;;;4956128;29;20490;-77
2022/05/07 05:51:27;;;;;;;2.60;2.40;;;18.10;90.60;;;;;;4957553;29;20205;-78
2022/05/07 05:53:52;;;;;;;2.67;1.93;;;18.20;86.60;;;;;;4957770;29;20186;-78
2022/05/07 05:56:18;;;;;;;2.20;2.00;;;18.50;87.20;;;;;;4956180;29;20175;-78
2022/05/07 05:58:44;;;;;;;2.93;2.07;;;19.60;84.90;;;;;;4956279;29;20265;-78
2022/05/07 06:01:10;;;;;;;4.80;2.00;;;20.50;81.40;;;;;;4956694;29;20521;-78
2022/05/07 06:03:35;;;;;;;2.87;2.57;;;21.00;80.00;;;;;;4954459;29;20186;-78
2022/05/07 06:06:01;;;;;;;3.53;2.17;;;21.90;76.60;;;;;;4940250;29;20175;-78
2022/05/07 06:08:26;;;;;;;3.07;1.97;;;22.00;76.70;;;;;;4955727;29;20198;-78
2022/05/07 06:10:54;;;;;;;2.80;2.13;;;20.30;80.00;;;;;;4942023;29;20257;-78
2022/05/07 06:13:20;;;;;;;2.60;1.60;;;21.60;77.40;;;;;;4936974;29;20170;-78
2022/05/07 06:15:51;;;;;;;3.87;1.57;;;20.20;79.60;;;;;;4937117;29;20415;-78
2022/05/07 06:18:19;;;;;;;2.40;1.90;;;21.20;78.40;;;;;;4945538;29;20253;-78
2022/05/07 06:20:45;;;;;;;2.17;1.63;;;21.70;76.90;;;;;;4955844;29;20976;-77
2022/05/07 06:23:11;;;;;;;2.43;1.90;;;22.20;75.20;;;;;;4955925;29;20529;-77
2022/05/07 06:28:22;;;;;;;3.70;1.90;;;22.60;73.80;;;;;;4955773;29;20277;-77
2022/05/07 06:30:48;;;;;;;2.10;1.90;;;23.00;73.90;;;;;;4955670;29;20602;-77
2022/05/07 06:33:14;;;;;;;4.20;2.33;;;23.40;72.60;;;;;;4955782;29;20532;-77
2022/05/07 06:35:39;;;;;;;6.20;1.80;;;23.40;72.40;;;;;;4955811;29;20217;-76
2022/05/07 06:38:05;;;;;;;2.80;2.00;;;23.00;73.20;;;;;;4955370;29;20696;-76
2022/05/07 06:40:31;;;;;;;1.80;1.50;;;22.00;76.80;;;;;;4955550;28;20209;-77
2022/05/07 06:42:56;;;;;;;2.30;1.60;;;22.30;75.30;;;;;;4955645;29;20174;-76
2022/05/07 06:45:22;;;;;;;1.97;1.70;;;22.20;75.60;;;;;;4938316;29;20228;-76
2022/05/07 06:47:48;;;;;;;5.87;2.10;;;21.90;76.80;;;;;;4945900;29;20184;-76
2022/05/07 06:50:13;;;;;;;2.57;1.87;;;21.80;77.90;;;;;;4943713;29;20171;-76
2022/05/07 06:52:44;;;;;;;4.40;1.97;;;22.60;75.40;;;;;;4955397;29;20184;-76
2022/05/07 06:55:14;;;;;;;2.97;1.93;;;22.40;76.80;;;;;;4955279;29;20638;-76
2022/05/07 06:57:40;;;;;;;2.10;1.60;;;22.90;76.30;;;;;;4954852;29;20412;-76
2022/05/07 07:00:06;;;;;;;2.60;1.97;;;23.40;74.00;;;;;;4955178;29;20410;-76
2022/05/07 07:02:31;;;;;;;2.80;2.00;;;24.00;73.70;;;;;;4955044;29;20426;-76
2022/05/07 07:04:58;;;;;;;1.87;1.63;;;23.90;73.50;;;;;;4955078;29;20413;-76
2022/05/07 07:07:25;;;;;;;3.40;1.60;;;24.30;73.70;;;;;;4954602;29;20167;-77
2022/05/07 07:09:51;;;;;;;3.10;1.60;;;24.80;71.40;;;;;;4953644;29;20953;-77
2022/05/07 07:12:16;;;;;;;4.47;2.20;;;25.30;70.60;;;;;;4918538;29;20443;-77
2022/05/07 07:14:42;;;;;;;3.03;1.60;;;24.80;69.90;;;;;;4923272;29;20506;-77
2022/05/07 07:17:07;;;;;;;2.10;1.70;;;25.00;70.40;;;;;;4944051;29;20183;-77
2022/05/07 07:19:34;;;;;;;4.60;2.00;;;24.90;71.20;;;;;;4944925;29;20187;-77
2022/05/07 07:22:00;;;;;;;4.63;2.07;;;24.00;72.10;;;;;;4942772;29;20651;-77
2022/05/07 07:24:26;;;;;;;3.80;1.80;;;24.90;71.30;;;;;;4930242;29;20586;-77
2022/05/07 07:26:51;;;;;;;2.17;1.40;;;24.40;74.70;;;;;;4942950;29;20553;-77
2022/05/07 07:29:16;;;;;;;2.70;1.50;;;25.30;70.90;;;;;;4943975;29;20321;-77
2022/05/07 07:31:42;;;;;;;3.00;1.50;;;25.20;72.30;;;;;;4945942;29;20541;-77
2022/05/07 07:34:07;;;;;;;1.60;1.20;;;24.50;69.80;;;;;;4928249;29;20666;-77
2022/05/07 07:36:33;;;;;;;2.70;1.63;;;25.60;68.70;;;;;;4940625;29;20242;-77
2022/05/07 07:38:59;;;;;;;2.83;1.50;;;26.50;65.80;;;;;;4937362;29;20585;-77
2022/05/07 07:41:25;;;;;;;3.20;1.70;;;25.90;66.90;;;;;;4949234;29;20198;-77
2022/05/07 07:43:51;;;;;;;7.17;1.77;;;27.10;64.80;;;;;;4946193;29;20509;-77
2022/05/07 07:49:00;;;;;;;1.80;1.27;;;27.50;65.60;;;;;;4941391;28;20249;-77
2022/05/07 07:51:26;;;;;;;3.40;1.40;;;26.60;65.00;;;;;;4945281;29;20433;-77
2022/05/07 07:53:51;;;;;;;5.13;1.60;;;27.40;62.10;;;;;;4939527;28;20186;-77
2022/05/07 07:56:18;;;;;;;1.90;1.30;;;27.40;62.70;;;;;;4945001;29;20574;-77
2022/05/07 07:58:43;;;;;;;4.23;1.30;;;27.00;63.10;;;;;;4951154;29;20167;-77
2022/05/07 08:01:09;;;;;;;4.23;1.50;;;27.40;61.00;;;;;;4954102;29;20430;-77
2022/05/07 08:03:35;;;;;;;4.53;1.20;;;26.40;62.80;;;;;;4954090;29;20688;-77
2022/05/07 08:06:00;;;;;;;3.73;1.47;;;24.90;63.60;;;;;;4954220;29;20182;-79
2022/05/07 08:13:54;;;;;;;2.17;1.03;;;21.00;70.80;;;;;;4958191;29;20485;-79
2022/05/07 08:16:21;;;;;;;2.13;1.23;;;20.60;73.30;;;;;;4944826;29;20907;-79
2022/05/07 08:18:47;;;;;;;1.70;1.50;;;21.40;70.70;;;;;;4936127;29;20175;-78
2022/05/07 08:21:13;;;;;;;1.43;1.33;;;21.80;69.30;;;;;;4947196;29;20461;-78
2022/05/07 08:23:40;;;;;;;5.47;1.70;;;22.10;70.70;;;;;;4953987;29;20917;-78
2022/05/07 08:26:07;;;;;;;8.13;1.80;;;22.00;70.40;;;;;;4936912;29;20234;-78
2022/05/07 08:28:34;;;;;;;6.87;1.67;;;21.90;70.20;;;;;;4953669;29;20461;-78
2022/05/07 08:31:00;;;;;;;2.80;1.47;;;21.40;74.20;;;;;;4953940;29;20500;-79
2022/05/07 08:33:27;;;;;;;3.60;2.10;;;20.80;73.70;;;;;;4954008;29;20489;-78
2022/05/07 08:35:52;;;;;;;2.57;1.33;;;20.40;73.90;;;;;;4953948;29;20497;-79
2022/05/07 08:38:19;;;;;;;2.07;1.43;;;20.10;75.40;;;;;;4952978;29;20578;-78
2022/05/07 08:40:45;;;;;;;4.93;1.70;;;19.80;77.30;;;;;;4953957;29;20194;-79
2022/05/07 08:43:10;;;;;;;2.13;1.43;;;19.50;78.30;;;;;;4936450;29;20497;-78
2022/05/07 08:45:39;;;;;;;2.93;1.33;;;20.00;83.30;;;;;;4953864;29;20805;-78
2022/05/07 08:48:04;;;;;;;4.20;1.37;;;21.00;80.60;;;;;;4953049;29;20303;-78
2022/05/07 08:50:30;;;;;;;3.43;1.57;;;21.30;77.20;;;;;;4953668;29;20525;-79
2022/05/07 08:52:56;;;;;;;2.40;1.70;;;21.40;84.30;;;;;;4953638;29;20244;-79
2022/05/07 08:55:22;;;;;;;6.93;1.80;;;22.60;74.90;;;;;;4953728;29;20179;-79
2022/05/07 08:57:49;;;;;;;4.77;1.40;;;22.80;74.60;;;;;;4953093;29;20179;-79
2022/05/07 09:00:17;;;;;;;2.30;1.40;;;21.90;73.00;;;;;;4953600;29;20415;-79
2022/05/07 09:02:45;;;;;;;3.13;1.33;;;21.40;74.60;;;;;;4953707;29;20502;-79
2022/05/07 09:05:13;;;;;;;2.10;1.40;;;21.10;76.10;;;;;;4955779;28;20415;-79
2022/05/07 09:07:41;;;;;;;5.07;1.77;;;21.00;77.60;;;;;;4955962;29;20497;-79
2022/05/07 09:10:13;;;;;;;1.63;1.47;;;21.90;77.70;;;;;;4955769;29;20469;-78
2022/05/07 09:12:39;;;;;;;2.50;1.40;;;22.40;77.10;;;;;;4955750;29;20439;-79
2022/05/07 09:15:07;;;;;;;2.50;1.63;;;22.20;76.20;;;;;;4956202;29;20945;-79
2022/05/07 09:17:33;;;;;;;1.70;1.40;;;21.90;77.90;;;;;;4956305;29;20413;-79
2022/05/07 09:20:16;;;;;;;1.50;1.40;;;23.10;80.50;;;;;;4957096;29;20430;-79
2022/05/07 09:22:55;;;;;;;4.27;1.70;;;24.20;78.70;;;;;;4956961;29;20426;-79
2022/05/07 09:25:25;;;;;;;2.23;1.70;;;24.80;68.70;;;;;;4957056;29;20497;-79
2022/05/07 09:27:54;;;;;;;6.30;2.17;;;24.70;65.30;;;;;;4939590;29;20462;-79
2022/05/07 09:30:24;;;;;;;2.90;1.30;;;24.70;68.50;;;;;;4956966;29;20918;-79
2022/05/07 09:32:51;;;;;;;2.93;1.70;;;23.20;71.40;;;;;;4957047;29;20409;-79
2022/05/07 09:38:02;;;;;;;6.83;1.60;;;23.20;72.60;;;;;;4956814;29;20405;-79
2022/05/07 09:40:28;;;;;;;3.90;1.50;;;23.90;71.40;;;;;;4956437;29;20457;-79
2022/05/07 09:42:57;;;;;;;2.00;1.50;;;23.40;66.70;;;;;;4956734;29;20417;-78
2022/05/07 09:45:30;;;;;;;2.30;1.40;;;23.10;66.00;;;;;;4956778;29;20423;-79
2022/05/07 09:47:56;;;;;;;2.90;1.50;;;23.70;68.60;;;;;;4956291;29;20451;-79
2022/05/07 09:58:43;;;;;;;3.70;1.60;;;23.60;67.90;;;;;;4956438;29;20994;-78
2022/05/07 10:01:21;;;;;;;1.80;1.20;;;23.60;76.40;;;;;;4956344;29;20536;-79
2022/05/07 10:04:26;;;;;;;1.73;1.37;;;23.80;67.00;;;;;;4939012;29;20426;-79
2022/05/07 10:07:00;;;;;;;3.80;1.60;;;23.90;66.50;;;;;;4956334;29;20501;-79
2022/05/07 10:09:40;;;;;;;2.87;1.33;;;24.40;65.50;;;;;;4957450;29;20824;-79
2022/05/07 10:12:06;;;;;;;4.50;1.30;;;24.40;63.40;;;;;;4956264;29;20509;-79
2022/05/07 10:14:32;;;;;;;2.30;1.20;;;23.10;63.20;;;;;;4957225;29;20411;-79
2022/05/07 10:17:09;;;;;;;1.47;1.20;;;22.60;64.20;;;;;;4939467;29;20418;-78
2022/05/07 10:19:45;;;;;;;5.90;1.70;;;22.70;64.90;;;;;;4955941;29;20425;-78
2022/05/07 10:22:29;;;;;;;2.60;1.50;;;22.70;70.20;;;;;;4956010;29;20911;-78
2022/05/07 10:25:12;;;;;;;2.90;1.10;;;22.90;65.40;;;;;;4956067;29;20559;-79
2022/05/07 10:27:42;;;;;;;5.43;1.20;;;23.20;63.80;;;;;;4955909;29;20402;-78
2022/05/07 10:30:14;;;;;;;2.77;1.17;;;23.20;71.40;;;;;;4956021;29;20466;-78
2022/05/07 10:33:01;;;;;;;5.13;1.10;;;22.70;63.20;;;;;;4955817;29;20406;-78
2022/05/07 10:35:46;;;;;;;2.23;1.30;;;22.40;64.60;;;;;;4955826;29;20917;-78
2022/05/07 10:38:15;;;;;;;2.23;1.20;;;23.10;71.30;;;;;;4955563;29;20918;-78
2022/05/07 10:40:54;;;;;;;5.37;1.37;;;23.70;63.80;;;;;;4955700;29;20441;-78
2022/05/07 10:43:37;;;;;;;2.73;1.40;;;23.30;61.40;;;;;;4955654;29;20415;-77
2022/05/07 10:46:12;;;;;;;3.50;1.27;;;22.80;61.20;;;;;;4955783;29;20411;-78
2022/05/07 10:48:42;;;;;;;2.33;1.37;;;23.10;68.30;;;;;;4955698;29;20473;-78
2022/05/07 10:51:20;;;;;;;2.07;1.03;;;23.80;62.20;;;;;;4955539;29;20493;-78
2022/05/07 10:53:46;;;;;;;6.53;1.40;;;23.80;61.30;;;;;;4957290;29;20414;-77
2022/05/07 10:56:16;;;;;;;1.70;1.37;;;23.70;61.70;;;;;;4976162;29;20446;-78
2022/05/07 10:58:59;;;;;;;2.53;1.40;;;23.20;61.00;;;;;;4980443;29;20415;-78
2022/05/07 11:01:27;;;;;;;1.77;1.17;;;23.50;61.80;;;;;;4980729;29;20481;-78
2022/05/07 11:04:04;;;;;;;2.90;1.30;;;24.00;68.60;;;;;;4964282;29;20439;-77
2022/05/07 11:06:49;;;;;;;1.60;1.40;;;23.20;69.40;;;;;;4972139;28;20477;-77
2022/05/07 11:09:25;;;;;;;1.60;1.30;;;21.80;70.50;;;;;;4955254;29;20462;-77
2022/05/07 11:11:57;;;;;;;2.70;1.43;;;21.20;70.90;;;;;;4955515;29;20434;-77
2022/05/07 11:14:25;;;;;;;2.73;1.50;;;20.90;70.70;;;;;;4937941;29;20513;-77
2022/05/07 11:16:52;;;;;;;3.63;1.20;;;20.40;73.20;;;;;;4955140;29;20790;-77
2022/05/07 11:19:29;;;;;;;2.87;1.43;;;20.60;73.20;;;;;;4954836;29;20426;-77
2022/05/07 11:21:56;;;;;;;2.27;1.20;;;20.80;74.50;;;;;;4954945;29;20571;-76
2022/05/07 11:24:22;;;;;;;3.30;1.50;;;20.80;74.60;;;;;;4954817;29;20448;-76
2022/05/07 11:26:55;;;;;;;3.63;1.53;;;20.80;76.60;;;;;;4954717;28;20414;-77
2022/05/07 11:29:21;;;;;;;2.70;1.50;;;20.90;75.60;;;;;;4954060;29;20561;-77
2022/05/07 11:32:07;;;;;;;7.50;1.10;;;21.00;69.30;;;;;;4954844;29;20841;-77
2022/05/07 11:34:40;;;;;;;2.10;1.20;;;21.10;73.20;;;;;;4954811;29;20673;-77
2022/05/07 11:37:16;;;;;;;5.03;1.63;;;21.00;76.10;;;;;;4954737;29;20497;-77
2022/05/07 11:39:52;;;;;;;3.07;1.13;;;20.60;72.50;;;;;;4954401;29;20418;-77
2022/05/07 11:42:43;;;;;;;1.40;1.20;;;20.40;72.70;;;;;;4954586;29;21004;-77
2022/05/07 11:47:55;;;;;;;1.93;1.33;;;19.90;69.40;;;;;;4954251;29;20409;-77
2022/05/07 11:50:29;;;;;;;3.17;1.10;;;20.00;70.80;;;;;;4954561;29;20411;-78
2022/05/07 11:52:56;;;;;;;3.90;1.27;;;20.00;73.70;;;;;;4954498;29;20482;-78
2022/05/07 11:55:26;;;;;;;5.70;1.60;;;20.20;70.90;;;;;;4954463;29;20421;-77
2022/05/07 11:57:53;;;;;;;5.67;1.20;;;20.30;72.00;;;;;;4953850;29;20423;-77
2022/05/07 12:00:21;;;;;;;2.00;1.17;;;20.50;71.70;;;;;;4935918;29;20423;-77
2022/05/07 12:02:55;;;;;;;3.60;1.20;;;20.50;70.80;;;;;;4937367;29;20800;-77
2022/05/07 12:05:22;;;;;;;2.87;1.30;;;20.30;70.40;;;;;;4918079;29;20426;-77
2022/05/07 12:07:50;;;;;;;3.37;1.20;;;20.20;75.00;;;;;;4934654;29;20455;-78
2022/05/07 12:10:17;;;;;;;1.53;1.20;;;20.30;77.10;;;;;;4934922;29;20423;-77
2022/05/07 12:12:43;;;;;;;4.03;1.50;;;20.00;74.90;;;;;;4934944;29;20807;-77
2022/05/07 12:15:09;;;;;;;3.60;1.20;;;19.80;73.70;;;;;;4934942;29;20927;-77
2022/05/07 12:17:53;;;;;;;1.83;1.33;;;19.90;75.00;;;;;;4934641;29;20415;-77
2022/05/07 12:20:23;;;;;;;1.20;1.00;;;20.00;76.00;;;;;;4934980;29;20186;-77
2022/05/07 12:31:03;;;;;;;2.03;1.20;;;20.60;74.70;;;;;;4934914;29;20450;-77
2022/05/07 12:33:29;;;;;;;4.40;1.40;;;20.60;72.70;;;;;;4917669;29;20544;-77
2022/05/07 12:35:54;;;;;;;2.83;1.23;;;20.60;72.70;;;;;;4934720;29;20451;-78
2022/05/07 12:38:20;;;;;;;3.10;1.40;;;20.60;70.60;;;;;;4934728;29;20415;-77
2022/05/07 12:40:45;;;;;;;6.77;1.40;;;20.80;75.20;;;;;;4921421;29;20199;-77
2022/05/07 12:43:11;;;;;;;4.50;1.30;;;20.90;78.90;;;;;;4938630;29;20262;-78
2022/05/07 12:45:36;;;;;;;4.30;1.10;;;20.00;74.70;;;;;;4921535;29;20187;-78
2022/05/07 12:48:02;;;;;;;2.00;1.50;;;20.00;72.90;;;;;;4938190;29;20188;-77
2022/05/07 12:50:27;;;;;;;1.40;1.00;;;20.20;73.90;;;;;;4938444;29;20612;-77
2022/05/07 12:52:54;;;;;;;2.70;1.23;;;20.40;77.90;;;;;;4938523;29;20164;-78
2022/05/07 12:55:20;;;;;;;3.37;1.00;;;20.50;74.40;;;;;;4938382;29;20651;-78
2022/05/07 12:57:47;;;;;;;1.70;1.30;;;20.50;74.20;;;;;;4921108;29;20423;-78
2022/05/07 13:00:13;;;;;;;3.23;1.07;;;20.50;77.80;;;;;;4938314;29;20196;-78
2022/05/07 13:02:39;;;;;;;2.07;1.33;;;20.60;77.40;;;;;;4938332;29;20777;-78
2022/05/07 13:05:05;;;;;;;2.63;1.40;;;20.50;72.80;;;;;;4938235;29;20514;-78
2022/05/07 13:07:31;;;;;;;1.90;1.10;;;20.60;71.70;;;;;;4937916;29;20572;-77
2022/05/07 13:09:56;;;;;;;4.03;1.53;;;20.90;79.60;;;;;;4938045;29;20203;-78
2022/05/07 13:12:24;;;;;;;5.53;1.30;;;21.00;72.90;;;;;;4938063;29;20195;-78
2022/05/07 13:14:50;;;;;;;2.07;1.40;;;20.90;73.20;;;;;;4938149;29;20554;-77
2022/05/07 13:17:15;;;;;;;2.80;1.80;;;20.60;70.70;;;;;;4938064;29;20903;-77
2022/05/07 13:19:41;;;;;;;1.40;1.07;;;21.60;73.60;;;;;;4937712;29;20422;-78
2022/05/07 13:22:07;;;;;;;1.30;1.17;;;22.50;66.30;;;;;;4937873;29;20241;-77
2022/05/07 13:24:32;;;;;;;2.17;1.20;;;21.80;68.00;;;;;;4937855;29;20250;-78
2022/05/07 13:26:58;;;;;;;1.33;1.17;;;22.10;70.50;;;;;;4937888;29;20211;-78
2022/05/07 13:29:23;;;;;;;4.50;1.70;;;21.90;67.80;;;;;;4937571;29;20664;-77
2022/05/07 13:31:49;;;;;;;1.70;1.00;;;22.00;67.80;;;;;;4937709;29;20589;-78
2022/05/07 13:34:15;;;;;;;3.83;1.33;;;21.30;69.20;;;;;;4937800;29;20584;-78
2022/05/07 13:36:41;;;;;;;4.10;1.23;;;21.30;68.40;;;;;;4937686;29;20248;-78
2022/05/07 13:39:06;;;;;;;1.57;1.13;;;21.20;69.80;;;;;;4937384;29;20510;-78
2022/05/07 13:41:32;;;;;;;2.77;1.40;;;20.90;67.50;;;;;;4937591;29;20840;-77
2022/05/07 13:43:57;;;;;;;2.30;1.10;;;20.70;68.60;;;;;;4920679;29;20242;-77
2022/05/07 13:46:24;;;;;;;2.67;1.20;;;20.50;68.90;;;;;;4937426;29;20206;-78
2022/05/07 13:48:49;;;;;;;2.90;1.10;;;20.50;68.00;;;;;;4937100;29;20207;-77
2022/05/07 13:51:16;;;;;;;3.30;1.60;;;20.40;68.50;;;;;;4936402;29;20432;-77
2022/05/07 13:53:42;;;;;;;2.10;1.17;;;20.60;68.10;;;;;;4937326;29;20255;-77
2022/05/07 13:56:07;;;;;;;3.77;1.50;;;21.20;67.50;;;;;;4937334;29;20891;-78
2022/05/07 13:58:33;;;;;;;2.50;1.07;;;21.30;66.30;;;;;;4922744;28;20179;-76
2022/05/07 14:00:59;;;;;;;2.20;1.07;;;21.40;68.20;;;;;;4937240;29;20274;-76
2022/05/07 14:03:24;;;;;;;2.23;1.33;;;21.10;66.70;;;;;;4937229;29;20172;-76
2022/05/07 14:05:52;;;;;;;2.93;1.40;;;20.60;68.80;;;;;;4937122;29;20171;-77
2022/05/07 14:08:18;;;;;;;3.67;1.60;;;20.30;70.40;;;;;;4919738;29;20219;-77
2022/05/07 14:10:44;;;;;;;1.43;1.07;;;20.40;74.00;;;;;;4936981;29;20799;-78
2022/05/07 14:13:09;;;;;;;4.60;1.33;;;20.00;74.80;;;;;;4937130;29;20186;-77
2022/05/07 14:15:35;;;;;;;2.13;1.10;;;20.00;75.50;;;;;;4937041;29;20180;-77
2022/05/07 14:18:01;;;;;;;2.93;1.37;;;20.20;76.80;;;;;;4936805;29;20172;-77
2022/05/07 14:20:27;;;;;;;8.70;1.13;;;21.00;79.00;;;;;;4936873;29;20171;-77
2022/05/07 14:22:53;;;;;;;3.27;1.30;;;21.70;71.50;;;;;;4936825;29;20823;-77
2022/05/07 14:25:19;;;;;;;2.97;1.67;;;22.00;68.80;;;;;;4936951;29;20278;-77
2022/05/07 14:27:44;;;;;;;4.30;1.53;;;22.80;74.80;;;;;;4936710;29;20435;-78
2022/05/07 14:30:10;;;;;;;7.13;1.53;;;23.70;72.50;;;;;;4936725;29;20640;-77
2022/05/07 14:32:38;;;;;;;1.20;1.10;;;24.40;67.40;;;;;;4919814;29;20199;-77
2022/05/07 14:35:06;;;;;;;3.20;1.33;;;24.60;66.20;;;;;;4936739;29;20418;-77
2022/05/07 14:37:31;;;;;;;2.90;1.40;;;24.30;68.40;;;;;;4936462;29;20502;-77
2022/05/07 14:39:57;;;;;;;2.17;1.43;;;24.00;67.40;;;;;;4936669;29;20495;-77
2022/05/07 14:42:22;;;;;;;2.00;1.20;;;23.00;68.30;;;;;;4936531;29;20246;-77
2022/05/07 14:44:49;;;;;;;3.33;1.40;;;23.10;66.50;;;;;;4936469;29;20666;-77
2022/05/07 14:47:14;;;;;;;2.47;1.37;;;23.00;66.90;;;;;;4936378;29;20195;-77
2022/05/07 14:49:40;;;;;;;3.10;1.30;;;21.80;68.40;;;;;;4936121;29;20487;-77
2022/05/07 14:52:06;;;;;;;1.40;1.30;;;21.30;70.50;;;;;;4936273;29;20225;-77
2022/05/07 14:54:31;;;;;;;3.53;1.30;;;21.10;71.60;;;;;;4936350;29;20176;-77
2022/05/07 14:56:58;;;;;;;3.83;1.40;;;20.70;73.30;;;;;;4936422;29;20179;-77
2022/05/07 14:59:24;;;;;;;2.23;1.33;;;21.00;71.60;;;;;;4936033;29;20167;-77
2022/05/07 15:01:49;;;;;;;6.83;1.70;;;21.10;69.20;;;;;;4918854;29;20586;-78
2022/05/07 15:04:15;;;;;;;6.53;1.50;;;20.60;69.50;;;;;;4936116;29;20172;-76
2022/05/07 15:06:40;;;;;;;2.33;1.30;;;19.90;71.50;;;;;;4936063;29;20180;-77
2022/05/07 15:11:50;;;;;;;2.60;1.33;;;19.70;75.60;;;;;;4936322;29;20211;-78
2022/05/07 15:14:16;;;;;;;2.40;1.40;;;19.70;74.00;;;;;;4936048;29;20411;-77
2022/05/07 15:16:42;;;;;;;1.83;1.27;;;19.80;73.90;;;;;;4935982;29;20179;-77
2022/05/07 15:19:08;;;;;;;2.23;1.10;;;20.10;70.40;;;;;;4935659;29;20453;-77
2022/05/07 15:21:34;;;;;;;3.20;1.30;;;19.90;71.50;;;;;;4938726;29;20443;-79
2022/05/07 15:23:59;;;;;;;2.07;1.70;;;19.90;72.50;;;;;;4923264;29;20663;-79
2022/05/07 15:26:25;;;;;;;3.87;2.00;;;20.30;73.40;;;;;;4923632;29;20179;-78
2022/05/07 15:28:50;;;;;;;3.30;1.43;;;20.50;69.20;;;;;;4940263;29;20200;-77
2022/05/07 15:31:16;;;;;;;4.63;1.57;;;20.80;72.10;;;;;;4923333;29;20202;-78
2022/05/07 15:39:14;;;;;;;2.80;1.40;;;21.70;73.00;;;;;;4940733;29;20454;-79
2022/05/07 15:41:40;;;;;;;2.13;1.17;;;21.60;66.40;;;;;;4940030;29;20494;-79
2022/05/07 15:44:05;;;;;;;1.97;1.20;;;21.50;64.70;;;;;;4923051;29;20623;-79
2022/05/07 15:46:32;;;;;;;3.40;1.50;;;21.40;66.40;;;;;;4940230;29;20176;-78
2022/05/07 15:48:58;;;;;;;1.87;1.10;;;21.40;67.30;;;;;;4923105;29;20200;-79
2022/05/07 15:51:24;;;;;;;1.77;1.40;;;21.50;67.10;;;;;;4923831;29;20449;-79
2022/05/07 15:53:49;;;;;;;1.73;1.20;;;21.60;69.70;;;;;;4923451;29;20168;-77
2022/05/07 15:56:15;;;;;;;1.80;1.10;;;21.60;70.40;;;;;;4923344;29;20253;-79
2022/05/07 15:58:42;;;;;;;2.30;1.20;;;21.60;68.70;;;;;;4940141;29;20231;-79
2022/05/07 16:01:08;;;;;;;3.23;1.20;;;21.50;70.20;;;;;;4940025;29;20191;-78
2022/05/07 16:03:34;;;;;;;4.03;1.30;;;21.40;65.50;;;;;;4923345;29;20560;-78
2022/05/07 16:05:59;;;;;;;2.17;1.30;;;21.40;66.20;;;;;;4923466;29;20951;-77
2022/05/07 16:08:26;;;;;;;3.43;1.17;;;21.40;66.10;;;;;;4940006;29;20466;-79
2022/05/07 16:10:51;;;;;;;3.63;1.10;;;21.50;63.50;;;;;;4937224;29;20184;-77
2022/05/07 16:13:18;;;;;;;2.40;1.37;;;21.30;64.50;;;;;;4934613;29;20408;-77
2022/05/07 16:15:44;;;;;;;2.90;1.43;;;21.00;64.10;;;;;;4918498;29;20548;-78
2022/05/07 16:18:09;;;;;;;1.23;1.00;;;21.20;65.40;;;;;;4935144;29;20416;-78
2022/05/07 16:33:32;;;;;;;2.33;1.27;;;21.30;68.80;;;;;;5297500;23;20492;-77
2022/05/07 16:35:59;;;;;;;1.73;1.33;;;21.30;71.80;;;;;;4972903;28;20418;-78
2022/05/07 16:38:25;;;;;;;4.27;1.30;;;21.30;72.70;;;;;;4973037;28;20192;-77
2022/05/07 16:40:50;;;;;;;2.13;1.40;;;21.10;69.30;;;;;;4973183;28;20933;-78
2022/05/07 16:43:16;;;;;;;2.07;1.20;;;20.90;70.20;;;;;;4955760;28;20178;-77
2022/05/07 16:45:41;;;;;;;2.50;1.03;;;20.80;72.50;;;;;;4973170;28;20178;-77
2022/05/07 16:48:07;;;;;;;4.37;1.07;;;20.70;71.40;;;;;;4972763;28;20182;-78
2022/05/07 16:50:33;;;;;;;5.67;1.10;;;20.90;78.30;;;;;;4955734;28;20202;-78
2022/05/07 16:52:58;;;;;;;3.20;1.47;;;20.80;73.10;;;;;;4955722;28;20737;-77
2022/05/07 16:55:24;;;;;;;5.00;1.20;;;20.40;73.70;;;;;;4973235;28;20174;-77
2022/05/07 16:57:49;;;;;;;2.53;1.20;;;20.10;75.80;;;;;;4972726;28;20182;-77
2022/05/07 17:00:15;;;;;;;1.63;1.10;;;19.90;74.40;;;;;;4972972;28;20174;-77
2022/05/07 17:02:41;;;;;;;1.53;1.23;;;19.90;76.80;;;;;;4972970;28;20174;-77
2022/05/07 17:05:07;;;;;;;2.27;1.10;;;19.70;73.30;;;;;;4955559;28;20925;-78
2022/05/07 17:07:32;;;;;;;4.13;1.40;;;19.60;71.70;;;;;;4955231;28;20178;-78
2022/05/07 17:09:58;;;;;;;2.50;1.30;;;19.60;76.50;;;;;;4972883;28;20456;-78
2022/05/07 17:12:24;;;;;;;3.30;1.30;;;19.60;77.20;;;;;;4972773;28;20543;-78
2022/05/07 17:14:49;;;;;;;2.47;1.10;;;19.30;77.80;;;;;;4972936;28;20533;-77
2022/05/07 17:17:15;;;;;;;3.20;1.37;;;19.10;79.80;;;;;;4972753;28;20182;-77
2022/05/07 17:19:40;;;;;;;2.30;1.30;;;18.90;81.20;;;;;;4972643;28;20222;-78
2022/05/07 17:22:07;;;;;;;2.13;1.40;;;18.80;80.50;;;;;;4972749;28;20568;-77
2022/05/07 17:24:36;;;;;;;6.63;1.60;;;18.70;79.20;;;;;;4972791;28;20181;-78
2022/05/07 17:27:02;;;;;;;4.30;1.50;;;18.60;80.20;;;;;;4975048;28;20944;-77
2022/05/07 17:29:27;;;;;;;4.97;1.20;;;18.50;80.70;;;;;;4976026;28;20484;-78
2022/05/07 17:31:53;;;;;;;5.27;1.20;;;18.50;83.10;;;;;;4975915;28;20217;-78
2022/05/07 17:34:18;;;;;;;2.27;1.30;;;18.60;84.10;;;;;;4958838;28;20182;-78
2022/05/07 17:36:44;;;;;;;5.43;1.20;;;18.40;80.20;;;;;;4976229;28;20643;-78
2022/05/07 17:39:09;;;;;;;4.50;1.10;;;18.30;83.30;;;;;;4975905;28;20186;-78
2022/05/07 17:41:37;;;;;;;2.87;1.37;;;18.20;85.70;;;;;;4975977;28;20198;-78
2022/05/07 17:44:03;;;;;;;2.10;1.40;;;17.90;86.50;;;;;;4976034;28;20178;-77
2022/05/07 17:46:28;;;;;;;2.87;1.57;;;17.70;87.40;;;;;;4976029;28;20414;-77